Time;durP1;ratioP1;P1;durP2;ratioP2;P2;SDS_P1;SDS_P2;PMS_P1;PMS_P2;Temp;Humidity;BMP_temperature;BMP_pressure;BME280_temperature;BME280_humidity;BME280_pressure;Samples;Min_cycle;Max_cycle;Signal;HPM_P1;HPM_P2
2021/01/28 00:00:17;;;;;;;0.90;0.33;;;;;;;;;;10174698;28;20507;-64
2021/01/28 00:05:14;;;;;;;6.47;1.20;;;;;;;;;;10165164;28;20417;-64
2021/01/28 00:10:12;;;;;;;3.03;1.00;;;;;;;;;;10168134;28;20033;-64
2021/01/28 00:15:10;;;;;;;5.63;1.60;;;;;;;;;;10169600;28;20106;-65
2021/01/28 00:20:10;;;;;;;7.22;1.55;;;;;;;;;;10168280;28;20098;-64
2021/01/28 00:25:08;;;;;;;1.95;0.85;;;;;;;;;;10165564;28;20105;-64
2021/01/28 00:30:07;;;;;;;2.63;1.40;;;;;;;;;;10153572;28;20026;-65
2021/01/28 00:35:06;;;;;;;1.77;0.95;;;;;;;;;;10152548;28;20041;-64
2021/01/28 00:40:04;;;;;;;4.63;1.02;;;;;;;;;;10168632;28;20031;-65
2021/01/28 00:45:02;;;;;;;4.55;1.10;;;;;;;;;;10163133;28;20026;-63
2021/01/28 00:49:59;;;;;;;1.98;0.60;;;;;;;;;;10161689;28;20027;-64
2021/01/28 00:54:57;;;;;;;1.77;0.77;;;;;;;;;;10157968;28;20030;-64
2021/01/28 00:59:54;;;;;;;3.20;1.00;;;;;;;;;;10175681;28;20037;-65
2021/01/28 01:04:52;;;;;;;5.60;1.33;;;;;;;;;;10164839;28;20452;-64
2021/01/28 01:09:49;;;;;;;0.87;0.67;;;;;;;;;;10165662;28;20039;-64
2021/01/28 01:14:47;;;;;;;1.65;0.65;;;;;;;;;;10163335;28;20062;-65
2021/01/28 01:19:45;;;;;;;0.50;0.50;;;;;;;;;;10147542;28;20129;-64
2021/01/28 01:24:47;;;;;;;1.38;0.88;;;;;;;;;;10157589;28;20461;-64
2021/01/28 01:29:44;;;;;;;0.50;0.50;;;;;;;;;;10158197;28;20925;-64
2021/01/28 01:35:01;;;;;;;0.25;0.25;;;;;;;;;;10165610;28;20082;-64
2021/01/28 01:39:59;;;;;;;0.30;0.25;;;;;;;;;;10160675;28;20735;-65
2021/01/28 01:44:59;;;;;;;0.32;0.30;;;;;;;;;;10176323;28;20039;-65
2021/01/28 01:50:06;;;;;;;0.20;0.20;;;;;;;;;;10161268;28;20319;-65
2021/01/28 01:55:03;;;;;;;0.40;0.40;;;;;;;;;;10162837;28;20105;-64
2021/01/28 02:00:08;;;;;;;1.02;0.50;;;;;;;;;;10152813;28;20436;-64
2021/01/28 02:05:35;;;;;;;0.55;0.15;;;;;;;;;;10167344;28;20030;-64
2021/01/28 02:10:51;;;;;;;0.90;0.40;;;;;;;;;;10176016;28;20038;-65
2021/01/28 02:16:16;;;;;;;4.38;1.05;;;;;;;;;;10158187;28;20126;-63
2021/01/28 02:21:33;;;;;;;1.90;1.17;;;;;;;;;;10163756;28;20035;-64
2021/01/28 02:26:39;;;;;;;1.13;0.35;;;;;;;;;;10162086;28;20452;-65
2021/01/28 02:32:00;;;;;;;0.85;0.38;;;;;;;;;;10144065;28;20408;-64
2021/01/28 02:37:08;;;;;;;0.93;0.52;;;;;;;;;;10158580;28;20043;-65
2021/01/28 02:42:30;;;;;;;5.05;0.63;;;;;;;;;;10165884;28;20027;-64
2021/01/28 02:47:39;;;;;;;0.30;0.30;;;;;;;;;;10179284;28;20110;-64
2021/01/28 02:53:04;;;;;;;0.17;0.17;;;;;;;;;;10156930;28;20042;-63
2021/01/28 02:58:05;;;;;;;0.35;0.35;;;;;;;;;;10133419;28;20675;-65
2021/01/28 03:03:15;;;;;;;0.60;0.60;;;;;;;;;;10170111;28;20038;-65
2021/01/28 03:08:20;;;;;;;0.20;0.20;;;;;;;;;;10155238;28;20117;-65
2021/01/28 03:13:21;;;;;;;0.38;0.38;;;;;;;;;;10153021;28;20449;-64
2021/01/28 03:18:25;;;;;;;0.65;0.40;;;;;;;;;;10149645;28;20035;-63
2021/01/28 03:23:24;;;;;;;1.65;0.30;;;;;;;;;;10155703;28;20696;-63
2021/01/28 03:28:37;;;;;;;0.60;0.30;;;;;;;;;;10148355;28;20417;-63
2021/01/28 03:33:40;;;;;;;0.50;0.50;;;;;;;;;;10167515;28;20517;-64
2021/01/28 03:38:38;;;;;;;0.20;0.20;;;;;;;;;;10176218;28;20101;-63
2021/01/28 03:43:35;;;;;;;0.30;0.30;;;;;;;;;;10172329;28;20035;-62
2021/01/28 03:48:33;;;;;;;0.20;0.20;;;;;;;;;;10147024;28;20036;-64
2021/01/28 03:53:56;;;;;;;0.20;0.20;;;;;;;;;;10154976;28;20094;-63
2021/01/28 03:58:59;;;;;;;1.42;0.50;;;;;;;;;;10151512;28;20612;-64
2021/01/28 04:04:19;;;;;;;0.95;0.50;;;;;;;;;;10145546;28;20509;-63
2021/01/28 04:09:37;;;;;;;0.57;0.57;;;;;;;;;;10150947;28;20126;-63
2021/01/28 04:14:43;;;;;;;0.30;0.30;;;;;;;;;;10174106;28;20049;-63
2021/01/28 04:19:40;;;;;;;1.03;1.03;;;;;;;;;;10155638;28;20127;-62
2021/01/28 04:24:37;;;;;;;0.20;0.20;;;;;;;;;;10150593;28;20441;-64
2021/01/28 04:29:35;;;;;;;1.50;0.57;;;;;;;;;;10170738;28;20031;-63
2021/01/28 04:34:42;;;;;;;0.20;0.20;;;;;;;;;;10176867;28;20038;-64
2021/01/28 04:39:49;;;;;;;0.35;0.35;;;;;;;;;;10165735;28;20034;-64
2021/01/28 04:44:47;;;;;;;0.35;0.35;;;;;;;;;;10140824;28;20035;-64
2021/01/28 04:49:54;;;;;;;14.48;1.27;;;;;;;;;;10161514;28;20186;-64
2021/01/28 04:54:57;;;;;;;0.25;0.25;;;;;;;;;;10153917;28;20043;-65
2021/01/28 05:00:05;;;;;;;0.20;0.20;;;;;;;;;;10165616;28;20394;-65
2021/01/28 05:05:11;;;;;;;1.48;0.20;;;;;;;;;;10163453;28;20477;-64
2021/01/28 05:10:41;;;;;;;0.47;0.47;;;;;;;;;;10142240;28;20066;-64
2021/01/28 05:15:58;;;;;;;0.30;0.30;;;;;;;;;;10159401;28;20529;-64
2021/01/28 05:21:18;;;;;;;0.90;0.43;;;;;;;;;;10167494;28;20228;-64
2021/01/28 05:26:37;;;;;;;0.82;0.63;;;;;;;;;;10137513;28;20118;-65
2021/01/28 05:31:40;;;;;;;0.35;0.35;;;;;;;;;;10153781;28;20039;-64
2021/01/28 05:36:52;;;;;;;0.85;0.35;;;;;;;;;;10175538;28;20042;-64
2021/01/28 05:42:25;;;;;;;0.73;0.52;;;;;;;;;;10159298;28;20475;-65
2021/01/28 05:47:26;;;;;;;0.20;0.20;;;;;;;;;;10171050;28;20053;-63
2021/01/28 05:52:42;;;;;;;0.40;0.40;;;;;;;;;;10152622;28;20038;-65
2021/01/28 05:57:46;;;;;;;0.50;0.50;;;;;;;;;;10163652;28;20050;-64
2021/01/28 06:02:45;;;;;;;0.95;0.68;;;;;;;;;;10165751;28;20038;-65
2021/01/28 06:08:25;;;;;;;2.75;0.63;;;;;;;;;;10152420;28;20408;-65
2021/01/28 06:13:24;;;;;;;0.73;0.52;;;;;;;;;;10169461;28;20123;-65
2021/01/28 06:18:41;;;;;;;0.75;0.70;;;;;;;;;;10144734;28;20185;-65
2021/01/28 06:23:59;;;;;;;1.05;0.63;;;;;;;;;;10149174;28;20122;-65
2021/01/28 06:29:02;;;;;;;0.93;0.70;;;;;;;;;;10161171;28;20038;-64
2021/01/28 06:34:01;;;;;;;5.63;1.15;;;;;;;;;;10167963;28;20034;-65
2021/01/28 06:39:42;;;;;;;2.47;0.73;;;;;;;;;;10088227;28;20050;-65
2021/01/28 06:45:09;;;;;;;2.97;1.13;;;;;;;;;;10159052;28;20078;-65
2021/01/28 06:50:28;;;;;;;0.95;0.90;;;;;;;;;;10152380;28;20046;-64
2021/01/28 06:55:32;;;;;;;1.88;1.08;;;;;;;;;;10129985;28;20141;-64
2021/01/28 07:01:00;;;;;;;2.83;1.67;;;;;;;;;;10151870;28;20039;-65
2021/01/28 07:05:58;;;;;;;;;;;;;;;;;;10136169;28;20121;-66
2021/01/28 07:10:58;;;;;;;3.17;1.58;;;;;;;;;;10131978;28;19918;-65
2021/01/28 07:16:47;;;;;;;2.55;1.27;;;;;;;;;;10091376;28;20137;-64
2021/01/28 07:21:47;;;;;;;4.18;1.10;;;;;;;;;;10152709;28;20039;-65
2021/01/28 07:26:48;;;;;;;3.70;2.10;;;;;;;;;;10161922;28;20043;-65
2021/01/28 07:31:47;;;;;;;2.47;1.55;;;;;;;;;;10147802;28;20086;-66
2021/01/28 07:36:52;;;;;;;1.02;0.95;;;;;;;;;;10155364;28;20045;-64
2021/01/28 07:42:21;;;;;;;2.03;0.88;;;;;;;;;;10148609;28;20039;-65
2021/01/28 07:47:42;;;;;;;3.92;1.38;;;;;;;;;;10150710;28;20038;-65
2021/01/28 07:52:42;;;;;;;1.17;0.88;;;;;;;;;;10143345;28;20516;-66
2021/01/28 07:57:41;;;;;;;1.38;0.75;;;;;;;;;;10164296;23;20029;-65
2021/01/28 08:02:38;;;;;;;1.05;0.88;;;;;;;;;;10270921;28;20037;-66
2021/01/28 08:07:43;;;;;;;2.25;1.65;;;;;;;;;;10266082;28;20049;-66
2021/01/28 08:12:46;;;;;;;0.98;0.90;;;;;;;;;;10242796;28;20538;-66
2021/01/28 08:17:43;;;;;;;0.60;0.60;;;;;;;;;;10228121;28;20030;-66
2021/01/28 08:22:50;;;;;;;1.77;1.17;;;;;;;;;;10213748;28;20034;-66
2021/01/28 08:27:47;;;;;;;1.38;1.15;;;;;;;;;;10254230;28;20034;-65
2021/01/28 08:32:46;;;;;;;2.03;1.13;;;;;;;;;;10262289;28;20038;-66
2021/01/28 08:37:43;;;;;;;0.80;0.60;;;;;;;;;;10239608;28;20104;-66
2021/01/28 08:42:40;;;;;;;1.37;1.27;;;;;;;;;;10230178;28;20084;-66
2021/01/28 08:47:38;;;;;;;2.60;1.43;;;;;;;;;;10234778;28;20038;-65
2021/01/28 08:52:36;;;;;;;4.03;2.67;;;;;;;;;;10210231;28;20042;-65
2021/01/28 08:57:34;;;;;;;1.38;1.27;;;;;;;;;;10217057;28;20510;-66
2021/01/28 09:02:34;;;;;;;6.27;2.43;;;;;;;;;;10221902;28;20516;-64
2021/01/28 09:08:00;;;;;;;1.85;1.27;;;;;;;;;;10228723;28;20339;-65
2021/01/28 09:13:21;;;;;;;5.10;2.47;;;;;;;;;;10225192;28;20046;-66
2021/01/28 09:18:27;;;;;;;2.05;1.35;;;;;;;;;;10229814;28;20470;-64
2021/01/28 09:23:24;;;;;;;4.18;2.10;;;;;;;;;;10225009;28;21815;-63
2021/01/28 09:28:23;;;;;;;2.58;2.08;;;;;;;;;;10225003;28;20034;-65
2021/01/28 09:33:42;;;;;;;3.20;2.03;;;;;;;;;;10220598;28;20046;-65
2021/01/28 09:38:40;;;;;;;4.20;2.72;;;;;;;;;;10236448;28;20060;-65
2021/01/28 09:43:37;;;;;;;6.60;2.67;;;;;;;;;;10216619;28;20041;-65
2021/01/28 09:48:35;;;;;;;1.03;1.03;;;;;;;;;;10229587;28;20129;-65
2021/01/28 09:53:33;;;;;;;4.57;2.33;;;;;;;;;;10241500;28;20034;-64
2021/01/28 09:58:30;;;;;;;4.60;2.38;;;;;;;;;;10233237;28;20034;-65
2021/01/28 10:03:27;;;;;;;3.50;2.30;;;;;;;;;;10242982;28;20115;-65
2021/01/28 10:08:25;;;;;;;6.57;3.40;;;;;;;;;;10245341;28;20061;-64
2021/01/28 10:13:22;;;;;;;5.17;3.20;;;;;;;;;;10247810;28;20041;-64
2021/01/28 10:18:19;;;;;;;2.43;1.57;;;;;;;;;;10220143;28;20507;-64
2021/01/28 10:23:17;;;;;;;4.63;2.40;;;;;;;;;;10249792;28;20030;-65
2021/01/28 10:28:14;;;;;;;3.60;1.87;;;;;;;;;;10228233;28;20034;-65
2021/01/28 10:33:12;;;;;;;5.33;2.73;;;;;;;;;;10235220;28;20076;-66
2021/01/28 10:38:09;;;;;;;6.60;3.33;;;;;;;;;;10234749;28;20034;-65
2021/01/28 10:43:07;;;;;;;2.50;2.30;;;;;;;;;;10213809;28;20041;-64
2021/01/28 10:48:05;;;;;;;4.17;2.43;;;;;;;;;;10227396;28;20447;-65
2021/01/28 10:53:03;;;;;;;5.25;3.03;;;;;;;;;;10211387;28;20041;-65
2021/01/28 10:58:01;;;;;;;3.17;2.30;;;;;;;;;;10231800;28;20476;-65
2021/01/28 11:02:58;;;;;;;1.67;1.47;;;;;;;;;;10229583;28;20041;-64
2021/01/28 11:07:56;;;;;;;4.73;2.30;;;;;;;;;;10243438;28;20038;-65
2021/01/28 11:12:55;;;;;;;2.30;2.08;;;;;;;;;;10247227;28;20044;-65
2021/01/28 11:17:52;;;;;;;;;;;;;;;;;;10218641;28;20042;-65
2021/01/28 11:22:49;;;;;;;3.38;1.83;;;;;;;;;;10217890;28;20360;-65
2021/01/28 11:27:48;;;;;;;3.80;2.27;;;;;;;;;;10231811;28;20038;-64
2021/01/28 11:32:45;;;;;;;2.08;1.58;;;;;;;;;;10201223;28;20332;-65
2021/01/28 11:37:45;;;;;;;5.97;2.30;;;;;;;;;;10232437;28;20045;-64
2021/01/28 11:42:43;;;;;;;1.55;1.38;;;;;;;;;;10222356;28;20050;-64
2021/01/28 11:47:40;;;;;;;3.70;2.63;;;;;;;;;;10226003;28;20042;-65
2021/01/28 11:52:38;;;;;;;2.73;1.47;;;;;;;;;;10229128;28;20037;-65
2021/01/28 11:57:35;;;;;;;3.20;1.93;;;;;;;;;;10233885;28;20044;-65
2021/01/28 12:02:33;;;;;;;4.83;1.93;;;;;;;;;;10228249;28;20423;-65
2021/01/28 12:07:30;;;;;;;3.00;1.70;;;;;;;;;;10227551;28;20152;-65
2021/01/28 12:12:27;;;;;;;2.40;1.60;;;;;;;;;;10234385;28;20041;-65
2021/01/28 12:17:25;;;;;;;3.40;1.80;;;;;;;;;;10214843;28;20048;-65
2021/01/28 12:22:22;;;;;;;4.43;2.47;;;;;;;;;;10223470;28;20041;-65
2021/01/28 12:27:20;;;;;;;4.47;2.33;;;;;;;;;;10213601;28;20033;-65
2021/01/28 12:32:17;;;;;;;4.90;2.30;;;;;;;;;;10228312;28;20049;-65
2021/01/28 12:37:15;;;;;;;1.97;1.23;;;;;;;;;;10226117;28;20045;-65
2021/01/28 12:42:12;;;;;;;2.97;1.67;;;;;;;;;;10230762;28;20034;-65
2021/01/28 12:47:09;;;;;;;4.47;1.77;;;;;;;;;;10209350;28;20040;-65
2021/01/28 12:52:07;;;;;;;2.03;1.37;;;;;;;;;;10215104;28;20404;-64
2021/01/28 12:57:04;;;;;;;1.70;1.40;;;;;;;;;;10215501;28;20092;-65
2021/01/28 13:02:02;;;;;;;3.00;1.93;;;;;;;;;;10233742;28;20480;-65
2021/01/28 13:06:59;;;;;;;4.93;2.03;;;;;;;;;;10236472;28;20038;-64
2021/01/28 13:11:57;;;;;;;2.87;1.67;;;;;;;;;;10224183;28;20132;-65
2021/01/28 13:16:55;;;;;;;1.95;1.52;;;;;;;;;;10242236;28;20423;-64
2021/01/28 13:21:53;;;;;;;2.42;1.48;;;;;;;;;;10222181;28;20045;-64
2021/01/28 13:26:50;;;;;;;4.07;2.47;;;;;;;;;;10222870;28;20084;-63
2021/01/28 13:31:47;;;;;;;4.17;2.03;;;;;;;;;;10232384;28;20044;-64
2021/01/28 13:36:45;;;;;;;3.40;1.80;;;;;;;;;;10228882;28;20042;-66
2021/01/28 13:41:42;;;;;;;1.60;1.07;;;;;;;;;;10256593;28;20056;-64
2021/01/28 13:46:39;;;;;;;1.80;1.70;;;;;;;;;;10248547;28;20048;-64
2021/01/28 13:51:37;;;;;;;2.00;1.43;;;;;;;;;;10253470;28;20060;-64
2021/01/28 13:56:34;;;;;;;3.23;1.60;;;;;;;;;;10243905;28;20041;-65
2021/01/28 14:01:32;;;;;;;2.27;1.70;;;;;;;;;;10232501;28;20034;-63
2021/01/28 14:06:29;;;;;;;4.93;1.23;;;;;;;;;;10233759;28;20041;-63
2021/01/28 14:11:27;;;;;;;2.63;1.73;;;;;;;;;;10210464;28;20522;-63
2021/01/28 14:16:24;;;;;;;1.23;0.93;;;;;;;;;;10211601;28;20045;-64
2021/01/28 14:21:22;;;;;;;2.13;1.17;;;;;;;;;;10227518;28;20540;-65
2021/01/28 14:26:19;;;;;;;2.93;1.60;;;;;;;;;;10214716;28;20050;-65
2021/01/28 14:31:17;;;;;;;4.37;1.27;;;;;;;;;;10205432;28;20034;-67
2021/01/28 14:36:14;;;;;;;1.20;1.10;;;;;;;;;;10255825;28;20045;-65
2021/01/28 14:41:12;;;;;;;0.80;0.80;;;;;;;;;;10241415;28;20057;-65
2021/01/28 14:46:09;;;;;;;4.03;1.10;;;;;;;;;;10229508;28;20034;-66
2021/01/28 14:51:06;;;;;;;1.33;1.20;;;;;;;;;;10242900;28;20358;-65
2021/01/28 14:56:04;;;;;;;0.87;0.67;;;;;;;;;;10239981;28;20034;-65
2021/01/28 15:01:02;;;;;;;0.43;0.40;;;;;;;;;;10233085;28;20080;-65
2021/01/28 15:05:59;;;;;;;1.37;0.57;;;;;;;;;;10243148;28;20124;-65
2021/01/28 15:10:57;;;;;;;2.63;1.30;;;;;;;;;;10239333;28;20524;-65
2021/01/28 15:15:54;;;;;;;2.70;1.47;;;;;;;;;;10256897;28;20309;-65
2021/01/28 15:20:53;;;;;;;2.20;1.03;;;;;;;;;;10213471;28;20046;-64
2021/01/28 15:25:50;;;;;;;0.90;0.30;;;;;;;;;;10210012;28;20327;-65
2021/01/28 15:30:47;;;;;;;0.60;0.60;;;;;;;;;;10205392;28;20038;-65
2021/01/28 15:35:45;;;;;;;0.30;0.30;;;;;;;;;;10230852;28;20042;-66
2021/01/28 15:40:42;;;;;;;0.63;0.63;;;;;;;;;;10241243;28;20135;-66
2021/01/28 15:45:40;;;;;;;0.80;0.80;;;;;;;;;;10281853;28;20044;-66
2021/01/28 15:50:38;;;;;;;0.63;0.63;;;;;;;;;;10268376;28;20128;-65
2021/01/28 15:55:35;;;;;;;0.77;0.77;;;;;;;;;;10267771;28;20048;-66
2021/01/28 16:00:33;;;;;;;0.53;0.47;;;;;;;;;;10255579;28;20272;-65
2021/01/28 16:05:30;;;;;;;0.63;0.63;;;;;;;;;;10262125;28;20046;-65
2021/01/28 16:10:28;;;;;;;2.57;0.80;;;;;;;;;;10229235;28;20029;-65
2021/01/28 16:15:25;;;;;;;0.97;0.97;;;;;;;;;;10213038;28;21104;-66
2021/01/28 16:20:23;;;;;;;0.50;0.50;;;;;;;;;;10227970;28;20046;-66
2021/01/28 16:25:21;;;;;;;1.33;0.73;;;;;;;;;;10224293;28;20034;-66
2021/01/28 16:30:20;;;;;;;0.98;0.90;;;;;;;;;;10221835;28;20389;-66
2021/01/28 16:35:21;;;;;;;0.45;0.45;;;;;;;;;;10220972;28;20033;-66
2021/01/28 16:40:19;;;;;;;1.00;0.90;;;;;;;;;;10227505;28;20018;-65
2021/01/28 16:45:18;;;;;;;0.60;0.60;;;;;;;;;;10210063;28;20023;-65
2021/01/28 16:50:17;;;;;;;0.82;0.82;;;;;;;;;;10227777;28;20022;-66
2021/01/28 16:55:14;;;;;;;0.80;0.80;;;;;;;;;;10205493;28;20053;-66
2021/01/28 17:00:12;;;;;;;1.50;0.93;;;;;;;;;;10219518;28;20045;-67
2021/01/28 17:05:10;;;;;;;0.43;0.40;;;;;;;;;;10229155;28;20022;-66
2021/01/28 17:10:08;;;;;;;0.75;0.75;;;;;;;;;;10221873;28;20380;-65
2021/01/28 17:15:06;;;;;;;1.65;1.55;;;;;;;;;;10209064;28;20528;-66
2021/01/28 17:20:04;;;;;;;1.25;0.93;;;;;;;;;;10228656;28;20053;-66
2021/01/28 17:25:01;;;;;;;4.65;1.45;;;;;;;;;;10236568;28;20132;-65
2021/01/28 17:29:59;;;;;;;1.53;1.10;;;;;;;;;;10214520;28;20034;-66
2021/01/28 17:34:57;;;;;;;1.40;1.10;;;;;;;;;;10232792;28;20297;-65
2021/01/28 17:39:55;;;;;;;1.37;1.07;;;;;;;;;;10233147;28;20045;-65
2021/01/28 17:44:52;;;;;;;3.92;2.05;;;;;;;;;;10225705;28;20034;-66
2021/01/28 17:49:50;;;;;;;2.93;1.70;;;;;;;;;;10235147;28;20046;-66
2021/01/28 17:54:47;;;;;;;2.33;2.13;;;;;;;;;;10223775;28;20408;-67
2021/01/28 17:59:45;;;;;;;1.67;1.50;;;;;;;;;;10232316;28;20040;-67
2021/01/28 18:04:43;;;;;;;1.80;1.60;;;;;;;;;;10235079;28;20038;-66
2021/01/28 18:09:40;;;;;;;1.47;1.37;;;;;;;;;;10248473;28;20489;-67
2021/01/28 18:14:38;;;;;;;5.60;2.27;;;;;;;;;;10233852;28;20512;-66
2021/01/28 18:19:36;;;;;;;3.78;2.25;;;;;;;;;;10232243;28;20518;-67
2021/01/28 18:24:34;;;;;;;3.25;2.42;;;;;;;;;;10225700;28;20041;-66
2021/01/28 18:29:31;;;;;;;5.23;2.80;;;;;;;;;;10253964;28;20492;-66
2021/01/28 18:34:28;;;;;;;3.37;2.40;;;;;;;;;;10235362;28;20700;-67
2021/01/28 18:39:26;;;;;;;6.43;3.53;;;;;;;;;;10242653;28;20044;-67
2021/01/28 18:44:24;;;;;;;4.03;2.13;;;;;;;;;;10238210;28;20133;-65
2021/01/28 18:49:21;;;;;;;;;;;;;;;;;;10218639;28;20440;-65
2021/01/28 18:54:19;;;;;;;4.78;3.13;;;;;;;;;;10235769;28;19913;-67
2021/01/28 18:59:17;;;;;;;4.10;3.07;;;;;;;;;;10235549;28;20046;-67
2021/01/28 19:04:14;;;;;;;2.83;2.33;;;;;;;;;;10242659;28;20307;-67
2021/01/28 19:09:12;;;;;;;3.30;2.63;;;;;;;;;;10249594;28;20035;-67
2021/01/28 19:14:10;;;;;;;8.17;3.63;;;;;;;;;;10233902;28;20034;-67
2021/01/28 19:19:07;;;;;;;5.55;3.10;;;;;;;;;;10235186;28;20111;-66
2021/01/28 19:24:05;;;;;;;4.90;2.83;;;;;;;;;;10217589;28;20115;-66
2021/01/28 19:29:03;;;;;;;3.30;2.43;;;;;;;;;;10223226;28;20307;-67
2021/01/28 19:34:01;;;;;;;;;;;;;;;;;;10211823;28;20664;-66
2021/01/28 19:38:58;;;;;;;5.30;2.50;;;;;;;;;;10224375;28;19925;-66
2021/01/28 19:43:56;;;;;;;5.70;3.13;;;;;;;;;;10232178;28;20045;-66
2021/01/28 19:48:53;;;;;;;5.90;2.70;;;;;;;;;;10230248;28;20503;-66
2021/01/28 19:53:50;;;;;;;4.13;2.60;;;;;;;;;;10203240;28;20513;-65
2021/01/28 19:58:48;;;;;;;2.93;1.63;;;;;;;;;;10202340;28;20411;-66
2021/01/28 20:03:45;;;;;;;1.83;1.43;;;;;;;;;;10229454;23;20041;-64
2021/01/28 20:08:42;;;;;;;2.77;1.93;;;;;;;;;;10241766;28;20117;-64
2021/01/28 20:13:40;;;;;;;1.80;1.67;;;;;;;;;;10231724;28;20033;-64
2021/01/28 20:18:38;;;;;;;15.47;2.10;;;;;;;;;;10227018;28;20045;-63
2021/01/28 20:23:35;;;;;;;2.60;2.33;;;;;;;;;;10225417;28;20092;-63
2021/01/28 20:28:33;;;;;;;2.20;1.67;;;;;;;;;;10237838;28;20034;-63
2021/01/28 20:33:30;;;;;;;2.23;1.60;;;;;;;;;;10225346;28;20034;-63
2021/01/28 20:38:28;;;;;;;2.90;1.60;;;;;;;;;;10246096;28;20033;-63
2021/01/28 20:43:25;;;;;;;1.63;1.52;;;;;;;;;;10211298;28;20100;-65
2021/01/28 20:48:23;;;;;;;4.90;1.90;;;;;;;;;;10247762;28;20037;-63
2021/01/28 20:53:20;;;;;;;1.33;1.23;;;;;;;;;;10235664;28;21242;-64
2021/01/28 20:58:19;;;;;;;3.13;2.27;;;;;;;;;;10228291;28;20041;-64
2021/01/28 21:03:16;;;;;;;2.13;1.90;;;;;;;;;;10213544;28;20571;-64
2021/01/28 21:08:14;;;;;;;2.83;1.43;;;;;;;;;;10265557;28;20042;-64
2021/01/28 21:13:11;;;;;;;4.57;2.17;;;;;;;;;;10234764;28;20026;-65
2021/01/28 21:18:08;;;;;;;4.10;2.17;;;;;;;;;;10220508;28;20508;-64
2021/01/28 21:23:06;;;;;;;2.10;1.40;;;;;;;;;;10228310;28;20037;-65
2021/01/28 21:28:03;;;;;;;1.23;1.13;;;;;;;;;;10270177;28;20042;-64
2021/01/28 21:33:02;;;;;;;1.60;1.13;;;;;;;;;;10217412;28;20038;-64
2021/01/28 21:37:59;;;;;;;;;;;;;;;;;;10245268;28;20412;-65
2021/01/28 21:42:56;;;;;;;1.98;1.83;;;;;;;;;;10231708;28;19921;-65
2021/01/28 21:47:57;;;;;;;2.17;2.00;;;;;;;;;;10243596;28;20046;-64
2021/01/28 21:52:55;;;;;;;4.60;2.08;;;;;;;;;;10259280;28;20044;-65
2021/01/28 21:57:57;;;;;;;2.23;1.80;;;;;;;;;;10262203;28;20048;-64
2021/01/28 22:02:54;;;;;;;4.55;2.03;;;;;;;;;;10266429;28;20037;-64
2021/01/28 22:07:52;;;;;;;4.47;1.90;;;;;;;;;;10295260;28;20025;-65
2021/01/28 22:12:50;;;;;;;4.10;2.30;;;;;;;;;;10250703;28;20379;-65
2021/01/28 22:17:47;;;;;;;;;;;;;;;;;;10197806;28;20073;-65
2021/01/28 22:22:45;;;;;;;6.20;2.22;;;;;;;;;;10228484;28;20356;-65
2021/01/28 22:27:42;;;;;;;7.63;2.50;;;;;;;;;;10244277;28;20045;-65
2021/01/28 22:32:40;;;;;;;4.80;2.93;;;;;;;;;;10243036;28;20858;-64
2021/01/28 22:37:38;;;;;;;11.93;3.47;;;;;;;;;;10245315;28;20038;-65
2021/01/28 22:42:36;;;;;;;5.28;2.47;;;;;;;;;;10229552;28;20038;-64
2021/01/28 22:47:33;;;;;;;5.17;3.13;;;;;;;;;;10216402;28;20091;-65
2021/01/28 22:52:31;;;;;;;6.83;2.93;;;;;;;;;;10230442;28;20030;-65
2021/01/28 22:57:28;;;;;;;5.23;3.40;;;;;;;;;;10236770;28;20049;-64
2021/01/28 23:02:26;;;;;;;6.73;2.70;;;;;;;;;;10247959;28;20038;-64
2021/01/28 23:07:23;;;;;;;23.57;2.60;;;;;;;;;;10243037;28;20420;-65
2021/01/28 23:12:21;;;;;;;4.97;2.83;;;;;;;;;;10236059;28;20488;-65
2021/01/28 23:17:19;;;;;;;4.82;2.33;;;;;;;;;;10201444;28;20045;-64
2021/01/28 23:22:16;;;;;;;5.43;2.83;;;;;;;;;;10241142;28;20078;-65
2021/01/28 23:27:14;;;;;;;3.77;2.53;;;;;;;;;;10243303;28;20030;-64
2021/01/28 23:32:11;;;;;;;4.53;3.20;;;;;;;;;;10229603;28;20057;-64
2021/01/28 23:37:08;;;;;;;5.50;2.27;;;;;;;;;;10238468;28;20049;-65
2021/01/28 23:42:06;;;;;;;3.97;2.47;;;;;;;;;;10245901;28;20034;-64
2021/01/28 23:47:03;;;;;;;5.23;3.03;;;;;;;;;;10253196;28;20469;-65
2021/01/28 23:52:00;;;;;;;5.27;2.13;;;;;;;;;;10241558;28;20096;-64
2021/01/28 23:56:58;;;;;;;5.37;2.70;;;;;;;;;;10249131;28;20637;-64
